sensor_id;sensor_type;location;lat;lon;timestamp;pressure;altitude;pressure_sealevel;temperature
64790;BMP280;51223;51.816;5.862;2022-11-14T00:02:10;101311.56;;;8.19
64790;BMP280;51223;51.816;5.862;2022-11-14T00:04:36;101305.16;;;8.00
64790;BMP280;51223;51.816;5.862;2022-11-14T00:07:02;101293.97;;;7.97
64790;BMP280;51223;51.816;5.862;2022-11-14T00:09:28;101291.97;;;7.87
64790;BMP280;51223;51.816;5.862;2022-11-14T00:11:54;101285.19;;;7.91
64790;BMP280;51223;51.816;5.862;2022-11-14T00:14:20;101284.41;;;7.87
64790;BMP280;51223;51.816;5.862;2022-11-14T00:16:46;101285.22;;;8.09
64790;BMP280;51223;51.816;5.862;2022-11-14T00:19:12;101299.94;;;8.49
64790;BMP280;51223;51.816;5.862;2022-11-14T00:21:38;101297.91;;;8.63
64790;BMP280;51223;51.816;5.862;2022-11-14T00:24:04;101323.50;;;8.48
64790;BMP280;51223;51.816;5.862;2022-11-14T00:26:30;101306.28;;;8.81
64790;BMP280;51223;51.816;5.862;2022-11-14T00:28:56;101321.88;;;8.61
64790;BMP280;51223;51.816;5.862;2022-11-14T00:31:22;101320.34;;;8.21
64790;BMP280;51223;51.816;5.862;2022-11-14T00:33:48;101306.72;;;8.33
64790;BMP280;51223;51.816;5.862;2022-11-14T00:36:13;101310.69;;;8.71
64790;BMP280;51223;51.816;5.862;2022-11-14T00:38:39;101307.56;;;8.41
64790;BMP280;51223;51.816;5.862;2022-11-14T00:41:05;101302.69;;;8.63
64790;BMP280;51223;51.816;5.862;2022-11-14T00:43:31;101300.34;;;8.36
64790;BMP280;51223;51.816;5.862;2022-11-14T00:45:57;101303.16;;;8.29
64790;BMP280;51223;51.816;5.862;2022-11-14T00:48:22;101304.34;;;8.43
64790;BMP280;51223;51.816;5.862;2022-11-14T00:50:48;101293.19;;;8.07
64790;BMP280;51223;51.816;5.862;2022-11-14T00:53:14;101277.63;;;8.06
64790;BMP280;51223;51.816;5.862;2022-11-14T00:55:41;101276.81;;;7.81
64790;BMP280;51223;51.816;5.862;2022-11-14T00:58:07;101267.63;;;7.91
64790;BMP280;51223;51.816;5.862;2022-11-14T01:00:35;101252.06;;;7.79
64790;BMP280;51223;51.816;5.862;2022-11-14T01:03:01;101249.28;;;7.69
64790;BMP280;51223;51.816;5.862;2022-11-14T01:05:27;101220.56;;;7.61
64790;BMP280;51223;51.816;5.862;2022-11-14T01:07:53;101236.09;;;7.90
64790;BMP280;51223;51.816;5.862;2022-11-14T01:10:19;101246.47;;;7.79
64790;BMP280;51223;51.816;5.862;2022-11-14T01:12:45;101254.88;;;7.93
64790;BMP280;51223;51.816;5.862;2022-11-14T01:15:11;101252.88;;;7.83
64790;BMP280;51223;51.816;5.862;2022-11-14T01:17:37;101256.03;;;8.28
64790;BMP280;51223;51.816;5.862;2022-11-14T01:20:04;101269.94;;;8.70
64790;BMP280;51223;51.816;5.862;2022-11-14T01:22:30;101275.19;;;8.47
64790;BMP280;51223;51.816;5.862;2022-11-14T01:24:56;101266.84;;;8.19
64790;BMP280;51223;51.816;5.862;2022-11-14T01:27:29;101261.63;;;8.31
64790;BMP280;51223;51.816;5.862;2022-11-14T01:29:55;101267.09;;;8.78
64790;BMP280;51223;51.816;5.862;2022-11-14T01:32:21;101271.59;;;8.36
64790;BMP280;51223;51.816;5.862;2022-11-14T01:34:46;101277.13;;;8.68
64790;BMP280;51223;51.816;5.862;2022-11-14T01:37:12;101247.28;;;7.90
64790;BMP280;51223;51.816;5.862;2022-11-14T01:39:38;101250.03;;;8.44
64790;BMP280;51223;51.816;5.862;2022-11-14T01:42:04;101247.28;;;8.12
64790;BMP280;51223;51.816;5.862;2022-11-14T01:44:56;101234.06;;;7.38
64790;BMP280;51223;51.816;5.862;2022-11-14T01:47:25;101203.03;;;7.64
64790;BMP280;51223;51.816;5.862;2022-11-14T01:49:57;101184.66;;;7.31
64790;BMP280;51223;51.816;5.862;2022-11-14T01:52:36;101166.31;;;7.30
64790;BMP280;51223;51.816;5.862;2022-11-14T01:55:05;101154.31;;;7.08
64790;BMP280;51223;51.816;5.862;2022-11-14T01:57:35;101148.75;;;7.33
64790;BMP280;51223;51.816;5.862;2022-11-14T02:00:06;101130.00;;;7.16
64790;BMP280;51223;51.816;5.862;2022-11-14T02:02:33;101135.22;;;7.46
64790;BMP280;51223;51.816;5.862;2022-11-14T02:05:05;101142.38;;;7.47
64790;BMP280;51223;51.816;5.862;2022-11-14T02:07:34;101141.59;;;7.50
64790;BMP280;51223;51.816;5.862;2022-11-14T02:10:06;101134.84;;;7.54
64790;BMP280;51223;51.816;5.862;2022-11-14T02:12:32;101148.75;;;7.97
64790;BMP280;51223;51.816;5.862;2022-11-14T02:14:58;101155.16;;;7.30
64790;BMP280;51223;51.816;5.862;2022-11-14T02:17:25;101144.81;;;7.73
64790;BMP280;51223;51.816;5.862;2022-11-14T02:20:03;101153.56;;;8.00
64790;BMP280;51223;51.816;5.862;2022-11-14T02:22:28;101151.97;;;7.42
64790;BMP280;51223;51.816;5.862;2022-11-14T02:24:54;101143.56;;;7.81
64790;BMP280;51223;51.816;5.862;2022-11-14T02:27:20;101130.03;;;7.51
64790;BMP280;51223;51.816;5.862;2022-11-14T02:29:46;101145.56;;;7.84
64790;BMP280;51223;51.816;5.862;2022-11-14T02:32:12;101158.69;;;8.19
64790;BMP280;51223;51.816;5.862;2022-11-14T02:34:38;101145.19;;;7.47
64790;BMP280;51223;51.816;5.862;2022-11-14T02:37:04;101125.66;;;7.68
64790;BMP280;51223;51.816;5.862;2022-11-14T02:39:30;101119.66;;;7.16
64790;BMP280;51223;51.816;5.862;2022-11-14T02:41:56;101115.31;;;7.29
64790;BMP280;51223;51.816;5.862;2022-11-14T02:44:21;101123.25;;;7.24
64790;BMP280;51223;51.816;5.862;2022-11-14T02:46:47;101105.69;;;6.95
64790;BMP280;51223;51.816;5.862;2022-11-14T02:49:13;101102.50;;;6.93
64790;BMP280;51223;51.816;5.862;2022-11-14T02:51:39;101082.91;;;6.75
64790;BMP280;51223;51.816;5.862;2022-11-14T02:54:06;101068.97;;;6.75
64790;BMP280;51223;51.816;5.862;2022-11-14T02:56:32;101065.06;;;6.83
64790;BMP280;51223;51.816;5.862;2022-11-14T02:58:58;101059.47;;;7.15
64790;BMP280;51223;51.816;5.862;2022-11-14T03:01:24;101085.00;;;7.07
64790;BMP280;51223;51.816;5.862;2022-11-14T03:03:49;101094.94;;;7.75
64790;BMP280;51223;51.816;5.862;2022-11-14T03:06:15;101105.72;;;7.55
64790;BMP280;51223;51.816;5.862;2022-11-14T03:08:41;101114.13;;;7.30
64790;BMP280;51223;51.816;5.862;2022-11-14T03:11:09;101122.84;;;7.82
64790;BMP280;51223;51.816;5.862;2022-11-14T03:13:35;101093.75;;;7.55
64790;BMP280;51223;51.816;5.862;2022-11-14T03:16:06;101117.59;;;8.13
64790;BMP280;51223;51.816;5.862;2022-11-14T03:18:32;101132.84;;;7.65
64790;BMP280;51223;51.816;5.862;2022-11-14T03:21:04;101098.56;;;7.37
64790;BMP280;51223;51.816;5.862;2022-11-14T03:23:30;101090.84;;;6.52
64790;BMP280;51223;51.816;5.862;2022-11-14T03:25:59;101093.78;;;7.37
64790;BMP280;51223;51.816;5.862;2022-11-14T03:28:26;101099.31;;;7.83
64790;BMP280;51223;51.816;5.862;2022-11-14T03:30:52;101116.47;;;7.71
64790;BMP280;51223;51.816;5.862;2022-11-14T03:33:18;101128.88;;;7.63
64790;BMP280;51223;51.816;5.862;2022-11-14T03:35:44;101110.09;;;7.56
64790;BMP280;51223;51.816;5.862;2022-11-14T03:38:10;101100.06;;;7.98
64790;BMP280;51223;51.816;5.862;2022-11-14T03:40:39;101128.84;;;7.77
64790;BMP280;51223;51.816;5.862;2022-11-14T03:43:05;101108.47;;;7.13
64790;BMP280;51223;51.816;5.862;2022-11-14T03:45:31;101107.72;;;7.30
64790;BMP280;51223;51.816;5.862;2022-11-14T03:47:57;101097.72;;;6.93
64790;BMP280;51223;51.816;5.862;2022-11-14T03:50:22;101063.41;;;6.75
64790;BMP280;51223;51.816;5.862;2022-11-14T03:52:49;101070.56;;;6.73
64790;BMP280;51223;51.816;5.862;2022-11-14T03:55:15;101059.41;;;6.66
64790;BMP280;51223;51.816;5.862;2022-11-14T03:57:40;101036.38;;;6.93
64790;BMP280;51223;51.816;5.862;2022-11-14T04:00:08;101043.50;;;6.77
64790;BMP280;51223;51.816;5.862;2022-11-14T04:02:34;101057.09;;;7.00
64790;BMP280;51223;51.816;5.862;2022-11-14T04:05:00;101050.75;;;7.20
64790;BMP280;51223;51.816;5.862;2022-11-14T04:07:25;101061.47;;;7.50
64790;BMP280;51223;51.816;5.862;2022-11-14T04:09:51;101084.97;;;7.56
64790;BMP280;51223;51.816;5.862;2022-11-14T04:12:17;101087.00;;;7.63
64790;BMP280;51223;51.816;5.862;2022-11-14T04:14:43;101070.25;;;7.03
64790;BMP280;51223;51.816;5.862;2022-11-14T04:17:09;101073.81;;;7.10
64790;BMP280;51223;51.816;5.862;2022-11-14T04:19:35;101067.84;;;7.33
64790;BMP280;51223;51.816;5.862;2022-11-14T04:22:01;101071.78;;;7.82
64790;BMP280;51223;51.816;5.862;2022-11-14T04:24:27;101075.44;;;7.50
64790;BMP280;51223;51.816;5.862;2022-11-14T04:26:53;101092.19;;;7.61
64790;BMP280;51223;51.816;5.862;2022-11-14T04:29:19;101086.94;;;7.84
64790;BMP280;51223;51.816;5.862;2022-11-14T04:31:44;101101.56;;;8.24
64790;BMP280;51223;51.816;5.862;2022-11-14T04:34:10;101098.56;;;7.65
64790;BMP280;51223;51.816;5.862;2022-11-14T04:36:36;101084.59;;;7.19
64790;BMP280;51223;51.816;5.862;2022-11-14T04:39:02;101090.50;;;7.92
64790;BMP280;51223;51.816;5.862;2022-11-14T04:41:28;101104.13;;;7.72
64790;BMP280;51223;51.816;5.862;2022-11-14T04:43:53;101122.38;;;8.19
64790;BMP280;51223;51.816;5.862;2022-11-14T04:46:19;101114.44;;;7.96
64790;BMP280;51223;51.816;5.862;2022-11-14T04:48:45;101102.47;;;7.92
64790;BMP280;51223;51.816;5.862;2022-11-14T04:51:11;101112.09;;;7.38
64790;BMP280;51223;51.816;5.862;2022-11-14T04:53:37;101099.34;;;7.05
64790;BMP280;51223;51.816;5.862;2022-11-14T04:56:03;101070.16;;;6.64
64790;BMP280;51223;51.816;5.862;2022-11-14T04:58:29;101052.66;;;6.67
64790;BMP280;51223;51.816;5.862;2022-11-14T05:00:55;101033.44;;;6.33
64790;BMP280;51223;51.816;5.862;2022-11-14T05:03:23;101018.31;;;6.27
64790;BMP280;51223;51.816;5.862;2022-11-14T05:05:49;101014.09;;;7.04
64790;BMP280;51223;51.816;5.862;2022-11-14T05:08:15;101049.13;;;7.19
64790;BMP280;51223;51.816;5.862;2022-11-14T05:10:44;101056.28;;;7.63
64790;BMP280;51223;51.816;5.862;2022-11-14T05:13:11;101063.03;;;7.76
64790;BMP280;51223;51.816;5.862;2022-11-14T05:15:37;101090.91;;;8.01
64790;BMP280;51223;51.816;5.862;2022-11-14T05:18:03;101082.53;;;7.90
64790;BMP280;51223;51.816;5.862;2022-11-14T05:20:29;101093.38;;;7.67
64790;BMP280;51223;51.816;5.862;2022-11-14T05:22:55;101088.56;;;7.75
64790;BMP280;51223;51.816;5.862;2022-11-14T05:25:21;101091.72;;;7.87
64790;BMP280;51223;51.816;5.862;2022-11-14T05:27:47;101087.25;;;8.15
64790;BMP280;51223;51.816;5.862;2022-11-14T05:30:14;101091.69;;;7.94
64790;BMP280;51223;51.816;5.862;2022-11-14T05:32:40;101083.78;;;7.72
64790;BMP280;51223;51.816;5.862;2022-11-14T05:35:06;101099.25;;;8.05
64790;BMP280;51223;51.816;5.862;2022-11-14T05:37:33;101097.66;;;8.11
64790;BMP280;51223;51.816;5.862;2022-11-14T05:39:59;101089.69;;;8.02
64790;BMP280;51223;51.816;5.862;2022-11-14T05:42:28;101079.44;;;7.42
64790;BMP280;51223;51.816;5.862;2022-11-14T05:44:54;101080.19;;;7.68
64790;BMP280;51223;51.816;5.862;2022-11-14T05:47:20;101068.94;;;7.96
64790;BMP280;51223;51.816;5.862;2022-11-14T05:49:45;101069.84;;;7.47
64790;BMP280;51223;51.816;5.862;2022-11-14T05:52:11;101047.56;;;7.25
64790;BMP280;51223;51.816;5.862;2022-11-14T05:54:37;101051.47;;;7.74
64790;BMP280;51223;51.816;5.862;2022-11-14T05:57:03;101060.19;;;7.97
64790;BMP280;51223;51.816;5.862;2022-11-14T05:59:29;101070.50;;;8.11
64790;BMP280;51223;51.816;5.862;2022-11-14T06:01:55;101064.56;;;7.91
64790;BMP280;51223;51.816;5.862;2022-11-14T06:04:21;101060.97;;;8.09
64790;BMP280;51223;51.816;5.862;2022-11-14T06:06:47;101047.38;;;8.11
64790;BMP280;51223;51.816;5.862;2022-11-14T06:09:13;101070.84;;;8.24
64790;BMP280;51223;51.816;5.862;2022-11-14T06:11:39;101068.09;;;8.20
64790;BMP280;51223;51.816;5.862;2022-11-14T06:14:05;101074.94;;;8.05
64790;BMP280;51223;51.816;5.862;2022-11-14T06:16:31;101063.69;;;8.19
64790;BMP280;51223;51.816;5.862;2022-11-14T06:18:59;101076.88;;;8.19
64790;BMP280;51223;51.816;5.862;2022-11-14T06:21:25;101072.03;;;8.23
64790;BMP280;51223;51.816;5.862;2022-11-14T06:23:51;101078.03;;;8.21
64790;BMP280;51223;51.816;5.862;2022-11-14T06:26:22;101083.56;;;8.39
64790;BMP280;51223;51.816;5.862;2022-11-14T06:28:49;101089.94;;;8.43
64790;BMP280;51223;51.816;5.862;2022-11-14T06:31:15;101111.31;;;8.78
64790;BMP280;51223;51.816;5.862;2022-11-14T06:33:41;101105.91;;;8.43
64790;BMP280;51223;51.816;5.862;2022-11-14T06:36:08;101122.78;;;8.98
64790;BMP280;51223;51.816;5.862;2022-11-14T06:38:35;101116.59;;;8.62
64790;BMP280;51223;51.816;5.862;2022-11-14T06:41:09;101103.53;;;8.37
64790;BMP280;51223;51.816;5.862;2022-11-14T06:43:37;101108.69;;;8.46
64790;BMP280;51223;51.816;5.862;2022-11-14T06:46:05;101092.00;;;8.28
64790;BMP280;51223;51.816;5.862;2022-11-14T06:48:31;101101.78;;;8.65
64790;BMP280;51223;51.816;5.862;2022-11-14T06:50:58;101125.41;;;8.60
64790;BMP280;51223;51.816;5.862;2022-11-14T06:53:26;101109.88;;;8.45
64790;BMP280;51223;51.816;5.862;2022-11-14T06:56:00;101102.75;;;9.03
64790;BMP280;51223;51.816;5.862;2022-11-14T06:58:31;101111.47;;;8.46
64790;BMP280;51223;51.816;5.862;2022-11-14T07:01:18;101101.53;;;8.38
64790;BMP280;51223;51.816;5.862;2022-11-14T07:03:45;101093.72;;;7.80
64790;BMP280;51223;51.816;5.862;2022-11-14T07:06:13;101077.00;;;7.58
64790;BMP280;51223;51.816;5.862;2022-11-14T07:08:39;101085.88;;;8.58
64790;BMP280;51223;51.816;5.862;2022-11-14T07:11:07;101118.16;;;9.29
64790;BMP280;51223;51.816;5.862;2022-11-14T07:13:34;101136.50;;;9.33
64790;BMP280;51223;51.816;5.862;2022-11-14T07:16:01;101157.88;;;9.58
64790;BMP280;51223;51.816;5.862;2022-11-14T07:18:31;101163.75;;;9.74
64790;BMP280;51223;51.816;5.862;2022-11-14T07:20:59;101167.41;;;10.08
64790;BMP280;51223;51.816;5.862;2022-11-14T07:23:25;101192.47;;;10.57
64790;BMP280;51223;51.816;5.862;2022-11-14T07:25:51;101212.91;;;10.87
64790;BMP280;51223;51.816;5.862;2022-11-14T07:28:17;101205.41;;;10.47
64790;BMP280;51223;51.816;5.862;2022-11-14T07:30:43;101186.53;;;10.17
64790;BMP280;51223;51.816;5.862;2022-11-14T07:33:09;101192.59;;;10.76
64790;BMP280;51223;51.816;5.862;2022-11-14T07:35:38;101186.25;;;10.38
64790;BMP280;51223;51.816;5.862;2022-11-14T07:38:04;101193.66;;;10.89
64790;BMP280;51223;51.816;5.862;2022-11-14T07:40:30;101197.28;;;11.13
64790;BMP280;51223;51.816;5.862;2022-11-14T07:43:00;101187.06;;;10.39
64790;BMP280;51223;51.816;5.862;2022-11-14T07:45:27;101186.06;;;10.56
64790;BMP280;51223;51.816;5.862;2022-11-14T07:47:57;101204.59;;;11.07
64790;BMP280;51223;51.816;5.862;2022-11-14T07:50:24;101185.75;;;10.77
64790;BMP280;51223;51.816;5.862;2022-11-14T07:52:51;101177.34;;;10.50
64790;BMP280;51223;51.816;5.862;2022-11-14T07:55:18;101194.59;;;10.79
64790;BMP280;51223;51.816;5.862;2022-11-14T07:57:44;101178.16;;;10.47
64790;BMP280;51223;51.816;5.862;2022-11-14T08:00:11;101188.53;;;10.84
64790;BMP280;51223;51.816;5.862;2022-11-14T08:02:37;101189.56;;;10.94
64790;BMP280;51223;51.816;5.862;2022-11-14T08:05:03;101183.59;;;10.28
64790;BMP280;51223;51.816;5.862;2022-11-14T08:07:29;101157.84;;;9.65
64790;BMP280;51223;51.816;5.862;2022-11-14T08:09:54;101144.56;;;9.72
64790;BMP280;51223;51.816;5.862;2022-11-14T08:12:20;101144.00;;;9.88
64790;BMP280;51223;51.816;5.862;2022-11-14T08:14:46;101149.34;;;10.47
64790;BMP280;51223;51.816;5.862;2022-11-14T08:17:12;101156.78;;;10.27
64790;BMP280;51223;51.816;5.862;2022-11-14T08:19:38;101141.97;;;9.89
64790;BMP280;51223;51.816;5.862;2022-11-14T08:22:05;101109.34;;;9.75
64790;BMP280;51223;51.816;5.862;2022-11-14T08:24:31;101099.56;;;9.90
64790;BMP280;51223;51.816;5.862;2022-11-14T08:26:57;101100.47;;;9.80
64790;BMP280;51223;51.816;5.862;2022-11-14T08:29:23;101098.19;;;9.68
64790;BMP280;51223;51.816;5.862;2022-11-14T08:31:49;101099.88;;;9.62
64790;BMP280;51223;51.816;5.862;2022-11-14T08:34:15;101068.72;;;9.56
64790;BMP280;51223;51.816;5.862;2022-11-14T08:36:40;101070.31;;;9.57
64790;BMP280;51223;51.816;5.862;2022-11-14T08:39:06;101046.19;;;8.81
64790;BMP280;51223;51.816;5.862;2022-11-14T08:41:32;101039.56;;;9.09
64790;BMP280;51223;51.816;5.862;2022-11-14T08:43:58;101067.94;;;10.24
64790;BMP280;51223;51.816;5.862;2022-11-14T08:46:24;101078.25;;;9.62
64790;BMP280;51223;51.816;5.862;2022-11-14T08:48:49;101079.75;;;9.74
64790;BMP280;51223;51.816;5.862;2022-11-14T08:51:15;101069.94;;;9.07
64790;BMP280;51223;51.816;5.862;2022-11-14T08:53:41;101038.88;;;8.94
64790;BMP280;51223;51.816;5.862;2022-11-14T08:56:09;101052.47;;;9.78
64790;BMP280;51223;51.816;5.862;2022-11-14T08:58:35;101060.72;;;9.55
64790;BMP280;51223;51.816;5.862;2022-11-14T09:01:03;101066.53;;;9.74
64790;BMP280;51223;51.816;5.862;2022-11-14T09:03:29;101066.72;;;9.57
64790;BMP280;51223;51.816;5.862;2022-11-14T09:05:55;101047.75;;;9.30
64790;BMP280;51223;51.816;5.862;2022-11-14T09:08:22;101045.31;;;9.36
64790;BMP280;51223;51.816;5.862;2022-11-14T09:10:48;101036.25;;;9.59
64790;BMP280;51223;51.816;5.862;2022-11-14T09:13:13;101067.56;;;9.88
64790;BMP280;51223;51.816;5.862;2022-11-14T09:15:40;101056.06;;;10.12
64790;BMP280;51223;51.816;5.862;2022-11-14T09:18:08;101053.38;;;9.68
64790;BMP280;51223;51.816;5.862;2022-11-14T09:20:34;101075.41;;;10.34
64790;BMP280;51223;51.816;5.862;2022-11-14T09:23:01;101065.97;;;9.87
64790;BMP280;51223;51.816;5.862;2022-11-14T09:25:30;101058.84;;;9.82
64790;BMP280;51223;51.816;5.862;2022-11-14T09:27:56;101038.41;;;9.48
64790;BMP280;51223;51.816;5.862;2022-11-14T09:30:22;101025.97;;;9.86
64790;BMP280;51223;51.816;5.862;2022-11-14T09:32:48;101025.97;;;9.49
64790;BMP280;51223;51.816;5.862;2022-11-14T09:35:15;101023.53;;;9.88
64790;BMP280;51223;51.816;5.862;2022-11-14T09:37:41;101026.31;;;9.54
64790;BMP280;51223;51.816;5.862;2022-11-14T09:40:09;101011.06;;;9.59
64790;BMP280;51223;51.816;5.862;2022-11-14T09:45:09;101014.09;;;10.09
64790;BMP280;51223;51.816;5.862;2022-11-14T09:47:41;101012.75;;;9.53
64790;BMP280;51223;51.816;5.862;2022-11-14T09:50:37;101005.88;;;9.61
64790;BMP280;51223;51.816;5.862;2022-11-14T09:53:10;100995.66;;;9.77
64790;BMP280;51223;51.816;5.862;2022-11-14T09:55:38;100997.63;;;10.11
64790;BMP280;51223;51.816;5.862;2022-11-14T09:58:10;101000.25;;;9.64
64790;BMP280;51223;51.816;5.862;2022-11-14T10:00:47;100974.03;;;9.48
64790;BMP280;51223;51.816;5.862;2022-11-14T10:06:23;100971.16;;;9.51
64790;BMP280;51223;51.816;5.862;2022-11-14T10:11:30;100957.91;;;9.89
64790;BMP280;51223;51.816;5.862;2022-11-14T10:16:53;100954.16;;;9.69
64790;BMP280;51223;51.816;5.862;2022-11-14T10:22:20;100948.66;;;9.62
64790;BMP280;51223;51.816;5.862;2022-11-14T10:25:17;100951.63;;;9.48
64790;BMP280;51223;51.816;5.862;2022-11-14T10:31:01;100941.81;;;9.93
64790;BMP280;51223;51.816;5.862;2022-11-14T10:33:41;100952.06;;;10.07
64790;BMP280;51223;51.816;5.862;2022-11-14T10:36:20;100942.69;;;9.90
64790;BMP280;51223;51.816;5.862;2022-11-14T10:38:55;100944.44;;;10.34
64790;BMP280;51223;51.816;5.862;2022-11-14T10:41:26;100935.75;;;9.98
64790;BMP280;51223;51.816;5.862;2022-11-14T10:43:54;100934.16;;;9.97
64790;BMP280;51223;51.816;5.862;2022-11-14T10:48:48;100927.75;;;9.70
64790;BMP280;51223;51.816;5.862;2022-11-14T10:51:39;100908.31;;;9.86
64790;BMP280;51223;51.816;5.862;2022-11-14T10:56:44;100894.69;;;9.88
64790;BMP280;51223;51.816;5.862;2022-11-14T10:59:10;100885.13;;;10.12
64790;BMP280;51223;51.816;5.862;2022-11-14T11:01:38;100900.72;;;10.13
64790;BMP280;51223;51.816;5.862;2022-11-14T11:04:20;100895.88;;;10.17
64790;BMP280;51223;51.816;5.862;2022-11-14T11:06:50;100891.09;;;9.88
64790;BMP280;51223;51.816;5.862;2022-11-14T11:09:19;100878.38;;;9.53
64790;BMP280;51223;51.816;5.862;2022-11-14T11:12:05;100873.19;;;9.81
64790;BMP280;51223;51.816;5.862;2022-11-14T11:14:31;100872.78;;;10.10
64790;BMP280;51223;51.816;5.862;2022-11-14T11:17:14;100869.84;;;9.90
64790;BMP280;51223;51.816;5.862;2022-11-14T11:19:43;100871.91;;;9.86
64790;BMP280;51223;51.816;5.862;2022-11-14T11:22:35;100850.25;;;9.63
64790;BMP280;51223;51.816;5.862;2022-11-14T11:25:21;100861.63;;;10.06
64790;BMP280;51223;51.816;5.862;2022-11-14T11:28:03;100851.72;;;9.41
64790;BMP280;51223;51.816;5.862;2022-11-14T11:30:28;100834.69;;;9.86
64790;BMP280;51223;51.816;5.862;2022-11-14T11:32:54;100865.44;;;10.43
64790;BMP280;51223;51.816;5.862;2022-11-14T11:35:20;100868.69;;;10.14
64790;BMP280;51223;51.816;5.862;2022-11-14T11:37:53;100864.25;;;9.90
64790;BMP280;51223;51.816;5.862;2022-11-14T11:40:23;100852.78;;;9.81
64790;BMP280;51223;51.816;5.862;2022-11-14T11:43:08;100843.28;;;9.75
64790;BMP280;51223;51.816;5.862;2022-11-14T11:45:35;100843.09;;;9.86
64790;BMP280;51223;51.816;5.862;2022-11-14T11:50:40;100858.69;;;10.13
64790;BMP280;51223;51.816;5.862;2022-11-14T11:53:31;100878.50;;;9.99
64790;BMP280;51223;51.816;5.862;2022-11-14T11:56:03;100883.00;;;9.93
64790;BMP280;51223;51.816;5.862;2022-11-14T11:58:42;100866.78;;;9.81
64790;BMP280;51223;51.816;5.862;2022-11-14T12:01:12;100864.78;;;9.51
64790;BMP280;51223;51.816;5.862;2022-11-14T12:03:41;100856.63;;;9.91
64790;BMP280;51223;51.816;5.862;2022-11-14T12:06:12;100854.84;;;9.77
64790;BMP280;51223;51.816;5.862;2022-11-14T12:09:17;100850.63;;;9.92
64790;BMP280;51223;51.816;5.862;2022-11-14T12:11:48;100858.09;;;9.75
64790;BMP280;51223;51.816;5.862;2022-11-14T12:20:26;100863.88;;;10.38
64790;BMP280;51223;51.816;5.862;2022-11-14T12:25:52;100838.03;;;9.77
64790;BMP280;51223;51.816;5.862;2022-11-14T12:31:15;100847.22;;;10.28
64790;BMP280;51223;51.816;5.862;2022-11-14T12:33:50;100841.41;;;10.18
64790;BMP280;51223;51.816;5.862;2022-11-14T12:36:18;100854.78;;;10.31
64790;BMP280;51223;51.816;5.862;2022-11-14T12:38:47;100867.88;;;10.41
64790;BMP280;51223;51.816;5.862;2022-11-14T12:41:23;100841.47;;;9.88
64790;BMP280;51223;51.816;5.862;2022-11-14T12:43:50;100827.25;;;10.02
64790;BMP280;51223;51.816;5.862;2022-11-14T12:46:16;100833.66;;;10.26
64790;BMP280;51223;51.816;5.862;2022-11-14T12:48:45;100819.31;;;9.97
64790;BMP280;51223;51.816;5.862;2022-11-14T12:53:49;100810.22;;;9.90
64790;BMP280;51223;51.816;5.862;2022-11-14T13:01:58;100802.41;;;10.51
64790;BMP280;51223;51.816;5.862;2022-11-14T13:07:47;100821.75;;;10.85
64790;BMP280;51223;51.816;5.862;2022-11-14T13:10:23;100825.09;;;11.72
64790;BMP280;51223;51.816;5.862;2022-11-14T13:13:04;100837.38;;;11.61
64790;BMP280;51223;51.816;5.862;2022-11-14T13:15:51;100860.59;;;12.47
64790;BMP280;51223;51.816;5.862;2022-11-14T13:18:57;100894.06;;;12.09
64790;BMP280;51223;51.816;5.862;2022-11-14T13:22:32;100867.63;;;11.90
64790;BMP280;51223;51.816;5.862;2022-11-14T13:27:28;100869.31;;;12.03
64790;BMP280;51223;51.816;5.862;2022-11-14T13:29:55;100850.41;;;10.96
64790;BMP280;51223;51.816;5.862;2022-11-14T13:35:13;100817.22;;;11.31
64790;BMP280;51223;51.816;5.862;2022-11-14T13:49:29;100880.09;;;12.05
64790;BMP280;51223;51.816;5.862;2022-11-14T13:51:57;100844.03;;;11.32
64790;BMP280;51223;51.816;5.862;2022-11-14T13:54:23;100837.38;;;11.61
64790;BMP280;51223;51.816;5.862;2022-11-14T13:57:12;100790.91;;;10.85
64790;BMP280;51223;51.816;5.862;2022-11-14T13:59:51;100824.97;;;11.59
64790;BMP280;51223;51.816;5.862;2022-11-14T14:19:45;100856.00;;;12.36
64790;BMP280;51223;51.816;5.862;2022-11-14T14:25:04;100824.34;;;11.51
64790;BMP280;51223;51.816;5.862;2022-11-14T14:30:13;100852.09;;;12.01
64790;BMP280;51223;51.816;5.862;2022-11-14T14:32:40;100865.94;;;12.25
64790;BMP280;51223;51.816;5.862;2022-11-14T14:35:27;100820.50;;;11.45
64790;BMP280;51223;51.816;5.862;2022-11-14T14:37:55;100801.22;;;11.27
64790;BMP280;51223;51.816;5.862;2022-11-14T14:40:25;100821.13;;;11.69
64790;BMP280;51223;51.816;5.862;2022-11-14T14:42:52;100793.03;;;10.77
64790;BMP280;51223;51.816;5.862;2022-11-14T14:45:20;100794.13;;;11.23
64790;BMP280;51223;51.816;5.862;2022-11-14T14:47:57;100785.63;;;11.43
64790;BMP280;51223;51.816;5.862;2022-11-14T14:50:29;100755.31;;;10.82
64790;BMP280;51223;51.816;5.862;2022-11-14T14:52:58;100767.88;;;10.74
64790;BMP280;51223;51.816;5.862;2022-11-14T14:55:29;100741.34;;;10.98
64790;BMP280;51223;51.816;5.862;2022-11-14T14:57:55;100757.72;;;11.19
64790;BMP280;51223;51.816;5.862;2022-11-14T15:00:23;100786.44;;;11.92
64790;BMP280;51223;51.816;5.862;2022-11-14T15:02:54;100764.13;;;11.20
64790;BMP280;51223;51.816;5.862;2022-11-14T15:05:25;100752.13;;;10.60
64790;BMP280;51223;51.816;5.862;2022-11-14T15:07:55;100726.59;;;11.30
64790;BMP280;51223;51.816;5.862;2022-11-14T15:10:24;100758.88;;;11.38
64790;BMP280;51223;51.816;5.862;2022-11-14T15:12:51;100739.31;;;11.51
64790;BMP280;51223;51.816;5.862;2022-11-14T15:15:19;100764.81;;;12.21
64790;BMP280;51223;51.816;5.862;2022-11-14T15:17:47;100773.31;;;11.73
64790;BMP280;51223;51.816;5.862;2022-11-14T15:20:25;100777.81;;;12.31
64790;BMP280;51223;51.816;5.862;2022-11-14T15:23:05;100771.72;;;11.88
64790;BMP280;51223;51.816;5.862;2022-11-14T15:25:31;100759.78;;;12.00
64790;BMP280;51223;51.816;5.862;2022-11-14T15:27:57;100780.31;;;12.42
64790;BMP280;51223;51.816;5.862;2022-11-14T15:30:29;100765.75;;;11.86
64790;BMP280;51223;51.816;5.862;2022-11-14T15:32:58;100744.03;;;11.86
64790;BMP280;51223;51.816;5.862;2022-11-14T15:35:33;100752.13;;;11.84
64790;BMP280;51223;51.816;5.862;2022-11-14T15:40:40;100741.38;;;11.14
64790;BMP280;51223;51.816;5.862;2022-11-14T15:43:34;100721.66;;;10.82
64790;BMP280;51223;51.816;5.862;2022-11-14T15:46:01;100735.75;;;11.66
64790;BMP280;51223;51.816;5.862;2022-11-14T15:48:28;100728.41;;;10.84